• Join FlightAware (Why Join?)
  • Login
  • US Flag 
09:32AM EDT


 

Airport Tracker/Info


-or-


 

Live Flight TrackerFlight Track Log ✈ N51FK ✈ 10-May-2013 ✈ KIAD - KLOU

Flight Track Log - Related Links

Times and Time Zones

All times are in EDT time to prevent confusion due to time zone crossing. See the N51FK flight status page for this flight to view local times or setup timezone preferences in your user account.

Time Position Orientation Groundspeed Altitude Reporting Facility
EDT Latitude Longitude Course Direction KTS MPH feet Rate Location/Type
07:59PM 38.9833 -77.5333 288° West 244 281 5,000  Level Potomac TRACON
08:00PM 39.0500 -77.5667 339° North 295 339 5,300 1,860 Climbing Potomac TRACON
08:01PM 39.1589 -77.5028 24° Northeast 300 345 9,900 2,160 Climbing Washington Center
08:02PM 39.2378 -77.5156 353° North 282 325 11,000 2,100 Climbing Washington Center
08:03PM 39.2928 -77.5947 312° West 264 304 14,200 2,940 Climbing Washington Center
08:04PM 39.4604 -77.6247 288° West  Level FlightAware Approximate
08:04PM 39.3411 -77.6875 304° West 275 316 17,000  Level Washington Center
08:05PM 39.4086 -77.7592 321° Northwest 296 341 19,000 1,980 Climbing Washington Center
08:06PM 39.4847 -77.8181 329° Northwest 311 358 21,000 1,920 Climbing Washington Center
08:07PM 39.5500 -77.8953 318° Northwest 318 366 23,000 1,920 Climbing Washington Center
08:08PM 39.5833 -78.0042 292° West 311 358 24,900 1,620 Climbing Washington Center
08:10PM 39.6508 -78.2319 291° West 318 366 28,200 1,500 Climbing Cleveland Center
08:11PM 39.6822 -78.3389 291° West 318 366 29,800 1,500 Climbing Cleveland Center
08:12PM 39.7136 -78.4458 291° West 318 366 31,300 1,500 Climbing Cleveland Center
08:13PM 39.7467 -78.5528 292° West 323 372 32,800 1,500 Climbing Cleveland Center
08:14PM 39.7778 -78.6625 290° West 323 372 34,400 1,500 Climbing Cleveland Center
08:15PM 39.7775 -78.7733 270° West 314 361 35,900 1,440 Climbing Cleveland Center
08:16PM 39.7564 -78.8764 255° West 302 348 37,300 1,200 Climbing Cleveland Center
08:17PM 39.7308 -78.9931 254° West 302 348 38,400 1,020 Climbing Cleveland Center
08:18PM 39.7114 -79.0961 256° West 302 348 39,400 780 Climbing Cleveland Center
08:19PM 39.6897 -79.1964 254° West 302 348 40,000 300 Climbing Cleveland Center
08:20PM 39.6681 -79.3047 255° West 302 348 40,000  Level Cleveland Center
08:21PM 39.6464 -79.4158 256° West 308 354 40,000  Level Cleveland Center
08:22PM 39.6225 -79.5292 255° West 320 368 40,000  Level Cleveland Center
08:23PM 39.5983 -79.6456 255° West 326 375 40,000  Level Cleveland Center
08:24PM 39.5744 -79.7589 255° West 326 375 40,000  Level Cleveland Center
08:25PM 39.5542 -79.8481 254° West 326 375 40,000  Level Cleveland Center
08:26PM 39.5319 -79.9694 257° West 326 375 40,000  Level Cleveland Center
08:27PM 39.5075 -80.0800 254° West 321 369 40,000  Level Cleveland Center
08:30PM 39.4439 -80.3653 254° West 325 374 40,000  Level Indianapolis Center
08:31PM 39.4208 -80.4775 255° West 324 373 40,000  Level Indianapolis Center
08:32PM 39.3956 -80.5914 254° West 330 380 40,000  Level Indianapolis Center
08:33PM 39.3708 -80.7022 254° West 322 371 40,000  Level Indianapolis Center
08:34PM 39.3442 -80.8133 253° West 325 374 40,000  Level Indianapolis Center
08:35PM 39.3136 -80.9447 253° West 320 368 40,000  Level Indianapolis Center
08:36PM 39.2883 -81.0533 253° West 318 366 40,000  Level Indianapolis Center
08:37PM 39.2619 -81.1631 253° West 320 368 40,000  Level Indianapolis Center
08:38PM 39.2369 -81.2719 254° West 319 367 40,000  Level Indianapolis Center
08:39PM 39.2097 -81.3797 252° West 318 366 40,000  Level Indianapolis Center
08:40PM 39.1836 -81.4881 253° West 319 367 40,000  Level Indianapolis Center
08:41PM 39.1583 -81.5958 253° West 318 366 40,000  Level Indianapolis Center
08:42PM 39.1308 -81.7047 252° West 321 369 40,000  Level Indianapolis Center
08:43PM 39.0989 -81.8358 253° West 322 371 40,000  Level Indianapolis Center
08:44PM 39.0719 -81.9456 252° West 325 374 40,000 -600 Level Indianapolis Center
08:45PM 39.0433 -82.0606 252° West 338 389 38,800 -1,380 Descending Indianapolis Center
08:46PM 39.0139 -82.1781 252° West 347 399 37,300 -1,500 Descending Indianapolis Center
08:47PM 38.9853 -82.2889 252° West 333 383 35,800 -1,560 Descending Indianapolis Center
08:48PM 38.9578 -82.4014 253° West 332 382 34,200 -1,560 Descending Indianapolis Center
08:49PM 38.9281 -82.5189 252° West 344 396 32,700 -1,500 Descending Indianapolis Center
08:50PM 38.8967 -82.6417 252° West 358 412 31,200 -1,320 Descending Indianapolis Center
08:51PM 38.8581 -82.7908 252° West 368 423 30,000 -1,320 Descending Indianapolis Center
08:52PM 38.8256 -82.9192 252° West 375 432 28,600 -2,040 Descending Indianapolis Center
08:53PM 38.7931 -83.0436 252° West 370 426 25,900 -2,280 Descending Indianapolis Center
08:55PM 38.7594 -83.1731 252° West 363 418 24,000 -960 Descending Indianapolis Center
08:56PM 38.7286 -83.2919 252° West 352 405 24,000  Level Indianapolis Center
08:57PM 38.6969 -83.4106 251° West 349 402 24,000  Level Indianapolis Center
08:58PM 38.6667 -83.5281 252° West 346 398 24,000  Level Indianapolis Center
08:59PM 38.6372 -83.6369 251° West 346 398 24,000  Level Indianapolis Center
09:00PM 38.6067 -83.7542 252° West 348 400 24,000 -540 Level Indianapolis Center
09:01PM 38.5753 -83.8694 251° West 345 397 22,900 -1,380 Descending Indianapolis Center
09:02PM 38.5486 -84.0067 256° West 341 392 21,200 -1,440 Descending Indianapolis Center
09:03PM 38.5311 -84.1217 259° West 332 382 20,000 -600 Descending Indianapolis Center
09:04PM 38.5139 -84.2386 259° West 334 384 20,000  Level Indianapolis Center
09:05PM 38.4961 -84.3528 259° West 329 379 20,000  Level Indianapolis Center
09:06PM 38.4781 -84.4658 259° West 327 376 20,000 -840 Level Indianapolis Center
09:07PM 38.4608 -84.5803 259° West 327 376 18,300 -1,920 Descending Indianapolis Center
09:08PM 38.4428 -84.6956 259° West 330 380 16,200 -2,160 Descending Indianapolis Center
09:09PM 38.4256 -84.8050 259° West 323 372 14,000 -2,340 Descending Indianapolis Center
09:10PM 38.4075 -84.9117 258° West 311 358 11,500 -1,560 Descending Indianapolis Center
09:11PM 38.3892 -85.0269 259° West 288 331 10,900 -1,320 Descending Indianapolis Center
09:12PM 38.3733 -85.1261 259° West 286 329 8,900 -2,220 Descending Indianapolis Center
09:13PM 38.3589 -85.2181 259° West 265 305 6,400 -2,220 Descending Indianapolis Center
09:14PM 38.3458 -85.2903 257° West 263 303 4,400 -1,260 Descending Indianapolis Center
09:15PM 38.3306 -85.3933 259° West 255 293 3,900 -300 Descending Indianapolis Center
09:16PM 38.3192 -85.4697 259° West 250 288 3,800 -600 Descending Indianapolis Center
09:18PM 38.2512 -85.6144 252° West  Level Estimated
09:19PM 38.2667 -85.5833 252° West 136 157 1,800  Level Louisville TRACON
09:20PM 38.2167 -85.6500 252° West  Level FlightAware Approximate
09:27PM 38.2280 -85.6637 252° West  Level Estimated
09:28PM 38.2280 -85.6637 252° West  Level Estimated